sensor_id;sensor_type;location;lat;lon;timestamp;temperature;humidity
12053;DHT22;6087;48.982;12.064;2023-07-31T00:00:40;16.10;25.20
12053;DHT22;6087;48.982;12.064;2023-07-31T00:03:07;16.10;25.60
12053;DHT22;6087;48.982;12.064;2023-07-31T00:05:36;16.10;25.70
12053;DHT22;6087;48.982;12.064;2023-07-31T00:08:03;16.00;26.00
12053;DHT22;6087;48.982;12.064;2023-07-31T00:10:30;15.90;26.00
12053;DHT22;6087;48.982;12.064;2023-07-31T00:12:57;15.90;26.30
12053;DHT22;6087;48.982;12.064;2023-07-31T00:15:23;15.90;26.70
12053;DHT22;6087;48.982;12.064;2023-07-31T00:17:50;15.90;26.70
12053;DHT22;6087;48.982;12.064;2023-07-31T00:20:21;15.90;27.40
12053;DHT22;6087;48.982;12.064;2023-07-31T00:22:49;15.80;27.40
12053;DHT22;6087;48.982;12.064;2023-07-31T00:25:16;15.80;27.30
12053;DHT22;6087;48.982;12.064;2023-07-31T00:27:43;15.70;28.00
12053;DHT22;6087;48.982;12.064;2023-07-31T00:30:11;15.70;28.40
12053;DHT22;6087;48.982;12.064;2023-07-31T00:32:41;15.70;29.00
12053;DHT22;6087;48.982;12.064;2023-07-31T00:35:08;15.60;31.10
12053;DHT22;6087;48.982;12.064;2023-07-31T00:37:35;15.70;31.50
12053;DHT22;6087;48.982;12.064;2023-07-31T00:40:04;15.70;32.10
12053;DHT22;6087;48.982;12.064;2023-07-31T00:42:31;15.70;32.60
12053;DHT22;6087;48.982;12.064;2023-07-31T00:44:58;15.70;31.90
12053;DHT22;6087;48.982;12.064;2023-07-31T00:47:25;15.60;31.60
12053;DHT22;6087;48.982;12.064;2023-07-31T00:49:52;15.60;32.40
12053;DHT22;6087;48.982;12.064;2023-07-31T00:52:19;15.60;32.50
12053;DHT22;6087;48.982;12.064;2023-07-31T00:54:47;15.60;32.70
12053;DHT22;6087;48.982;12.064;2023-07-31T00:57:16;15.60;33.50
12053;DHT22;6087;48.982;12.064;2023-07-31T00:59:43;15.50;33.90
12053;DHT22;6087;48.982;12.064;2023-07-31T01:02:10;15.50;34.70
12053;DHT22;6087;48.982;12.064;2023-07-31T01:04:37;15.40;35.50
12053;DHT22;6087;48.982;12.064;2023-07-31T01:07:12;15.40;35.50
12053;DHT22;6087;48.982;12.064;2023-07-31T01:09:44;15.40;35.90
12053;DHT22;6087;48.982;12.064;2023-07-31T01:12:15;15.30;36.00
12053;DHT22;6087;48.982;12.064;2023-07-31T01:14:51;15.30;37.50
12053;DHT22;6087;48.982;12.064;2023-07-31T01:17:18;15.20;37.80
12053;DHT22;6087;48.982;12.064;2023-07-31T01:19:45;15.20;37.50
12053;DHT22;6087;48.982;12.064;2023-07-31T01:22:26;15.20;38.50
12053;DHT22;6087;48.982;12.064;2023-07-31T01:25:14;15.20;38.80
12053;DHT22;6087;48.982;12.064;2023-07-31T01:27:50;15.20;38.50
12053;DHT22;6087;48.982;12.064;2023-07-31T01:30:23;15.10;38.70
12053;DHT22;6087;48.982;12.064;2023-07-31T01:32:53;15.10;38.00
12053;DHT22;6087;48.982;12.064;2023-07-31T01:35:21;15.10;38.40
12053;DHT22;6087;48.982;12.064;2023-07-31T01:37:48;15.20;36.70
12053;DHT22;6087;48.982;12.064;2023-07-31T01:40:15;15.20;36.60
12053;DHT22;6087;48.982;12.064;2023-07-31T01:42:42;15.20;36.70
12053;DHT22;6087;48.982;12.064;2023-07-31T01:45:11;15.20;36.50
12053;DHT22;6087;48.982;12.064;2023-07-31T01:47:38;15.10;36.90
12053;DHT22;6087;48.982;12.064;2023-07-31T01:50:06;15.20;37.30
12053;DHT22;6087;48.982;12.064;2023-07-31T01:52:33;15.20;37.20
12053;DHT22;6087;48.982;12.064;2023-07-31T01:54:59;15.20;37.00
12053;DHT22;6087;48.982;12.064;2023-07-31T01:57:26;15.20;37.80
12053;DHT22;6087;48.982;12.064;2023-07-31T01:59:53;15.10;37.80
12053;DHT22;6087;48.982;12.064;2023-07-31T02:02:24;15.10;38.20
12053;DHT22;6087;48.982;12.064;2023-07-31T02:04:51;15.00;38.90
12053;DHT22;6087;48.982;12.064;2023-07-31T02:07:24;15.00;39.70
12053;DHT22;6087;48.982;12.064;2023-07-31T02:09:51;14.90;39.80
12053;DHT22;6087;48.982;12.064;2023-07-31T02:12:17;14.90;40.70
12053;DHT22;6087;48.982;12.064;2023-07-31T02:14:45;14.80;41.70
12053;DHT22;6087;48.982;12.064;2023-07-31T02:17:11;14.80;43.00
12053;DHT22;6087;48.982;12.064;2023-07-31T02:19:40;14.70;44.60
12053;DHT22;6087;48.982;12.064;2023-07-31T02:22:07;14.70;46.00
12053;DHT22;6087;48.982;12.064;2023-07-31T02:24:33;14.70;46.30
12053;DHT22;6087;48.982;12.064;2023-07-31T02:27:00;14.70;46.30
12053;DHT22;6087;48.982;12.064;2023-07-31T02:29:27;14.70;46.10
12053;DHT22;6087;48.982;12.064;2023-07-31T02:31:54;14.80;47.10
12053;DHT22;6087;48.982;12.064;2023-07-31T02:34:21;14.70;47.90
12053;DHT22;6087;48.982;12.064;2023-07-31T02:36:49;14.70;47.20
12053;DHT22;6087;48.982;12.064;2023-07-31T02:39:16;14.60;47.20
12053;DHT22;6087;48.982;12.064;2023-07-31T02:41:43;14.60;48.30
12053;DHT22;6087;48.982;12.064;2023-07-31T02:44:10;14.60;48.20
12053;DHT22;6087;48.982;12.064;2023-07-31T02:46:39;14.60;47.20
12053;DHT22;6087;48.982;12.064;2023-07-31T02:49:06;14.60;47.60
12053;DHT22;6087;48.982;12.064;2023-07-31T02:51:33;14.60;47.70
12053;DHT22;6087;48.982;12.064;2023-07-31T02:54:04;14.60;47.40
12053;DHT22;6087;48.982;12.064;2023-07-31T02:56:31;14.60;47.50
12053;DHT22;6087;48.982;12.064;2023-07-31T02:58:58;14.60;47.20
12053;DHT22;6087;48.982;12.064;2023-07-31T03:01:27;14.60;47.10
12053;DHT22;6087;48.982;12.064;2023-07-31T03:03:54;14.60;47.90
12053;DHT22;6087;48.982;12.064;2023-07-31T03:06:21;14.60;47.90
12053;DHT22;6087;48.982;12.064;2023-07-31T03:08:48;14.60;47.70
12053;DHT22;6087;48.982;12.064;2023-07-31T03:11:16;14.60;49.20
12053;DHT22;6087;48.982;12.064;2023-07-31T03:13:43;14.60;48.20
12053;DHT22;6087;48.982;12.064;2023-07-31T03:16:11;14.60;47.90
12053;DHT22;6087;48.982;12.064;2023-07-31T03:18:38;14.60;47.30
12053;DHT22;6087;48.982;12.064;2023-07-31T03:21:12;14.60;47.40
12053;DHT22;6087;48.982;12.064;2023-07-31T03:23:39;14.60;47.80
12053;DHT22;6087;48.982;12.064;2023-07-31T03:26:09;14.60;48.30
12053;DHT22;6087;48.982;12.064;2023-07-31T03:28:37;14.60;47.60
12053;DHT22;6087;48.982;12.064;2023-07-31T03:31:04;14.60;48.70
12053;DHT22;6087;48.982;12.064;2023-07-31T03:33:31;14.60;48.40
12053;DHT22;6087;48.982;12.064;2023-07-31T03:35:58;14.50;49.20
12053;DHT22;6087;48.982;12.064;2023-07-31T03:38:25;14.60;49.00
12053;DHT22;6087;48.982;12.064;2023-07-31T03:40:52;14.50;48.80
12053;DHT22;6087;48.982;12.064;2023-07-31T03:43:19;14.50;50.70
12053;DHT22;6087;48.982;12.064;2023-07-31T03:45:49;14.50;50.50
12053;DHT22;6087;48.982;12.064;2023-07-31T03:48:16;14.50;50.60
12053;DHT22;6087;48.982;12.064;2023-07-31T03:50:49;14.50;50.10
12053;DHT22;6087;48.982;12.064;2023-07-31T03:53:16;14.50;50.80
12053;DHT22;6087;48.982;12.064;2023-07-31T03:55:43;14.50;51.30
12053;DHT22;6087;48.982;12.064;2023-07-31T03:58:10;14.50;51.50
12053;DHT22;6087;48.982;12.064;2023-07-31T04:00:37;14.40;52.30
12053;DHT22;6087;48.982;12.064;2023-07-31T04:03:05;14.50;52.60
12053;DHT22;6087;48.982;12.064;2023-07-31T04:05:32;14.50;52.80
12053;DHT22;6087;48.982;12.064;2023-07-31T04:07:59;14.50;52.80
12053;DHT22;6087;48.982;12.064;2023-07-31T04:10:26;14.40;55.10
12053;DHT22;6087;48.982;12.064;2023-07-31T04:12:53;14.40;55.40
12053;DHT22;6087;48.982;12.064;2023-07-31T04:15:20;14.40;55.80
12053;DHT22;6087;48.982;12.064;2023-07-31T04:17:47;14.50;55.50
12053;DHT22;6087;48.982;12.064;2023-07-31T04:20:15;14.50;54.70
12053;DHT22;6087;48.982;12.064;2023-07-31T04:22:44;14.50;54.70
12053;DHT22;6087;48.982;12.064;2023-07-31T04:25:11;14.50;54.90
12053;DHT22;6087;48.982;12.064;2023-07-31T04:27:40;14.50;54.80
12053;DHT22;6087;48.982;12.064;2023-07-31T04:30:07;14.50;55.20
12053;DHT22;6087;48.982;12.064;2023-07-31T04:32:34;14.60;54.50
12053;DHT22;6087;48.982;12.064;2023-07-31T04:35:01;14.50;54.80
12053;DHT22;6087;48.982;12.064;2023-07-31T04:37:30;14.50;55.40
12053;DHT22;6087;48.982;12.064;2023-07-31T04:39:57;14.40;56.10
12053;DHT22;6087;48.982;12.064;2023-07-31T04:42:24;14.40;57.10
12053;DHT22;6087;48.982;12.064;2023-07-31T04:44:51;14.40;57.20
12053;DHT22;6087;48.982;12.064;2023-07-31T04:47:18;14.40;57.10
12053;DHT22;6087;48.982;12.064;2023-07-31T04:49:45;14.50;58.30
12053;DHT22;6087;48.982;12.064;2023-07-31T04:52:15;14.50;57.60
12053;DHT22;6087;48.982;12.064;2023-07-31T04:54:46;14.60;57.80
12053;DHT22;6087;48.982;12.064;2023-07-31T04:57:14;14.70;56.80
12053;DHT22;6087;48.982;12.064;2023-07-31T04:59:41;14.70;55.90
12053;DHT22;6087;48.982;12.064;2023-07-31T05:02:11;14.80;55.10
12053;DHT22;6087;48.982;12.064;2023-07-31T05:04:38;14.80;53.00
12053;DHT22;6087;48.982;12.064;2023-07-31T05:07:05;14.90;50.10
12053;DHT22;6087;48.982;12.064;2023-07-31T05:09:32;14.90;50.90
12053;DHT22;6087;48.982;12.064;2023-07-31T05:12:07;14.90;53.30
12053;DHT22;6087;48.982;12.064;2023-07-31T05:14:33;14.80;56.10
12053;DHT22;6087;48.982;12.064;2023-07-31T05:17:00;14.90;55.90
12053;DHT22;6087;48.982;12.064;2023-07-31T05:19:27;14.80;56.20
12053;DHT22;6087;48.982;12.064;2023-07-31T05:21:54;14.90;56.50
12053;DHT22;6087;48.982;12.064;2023-07-31T05:24:21;14.90;55.40
12053;DHT22;6087;48.982;12.064;2023-07-31T05:26:48;15.00;55.90
12053;DHT22;6087;48.982;12.064;2023-07-31T05:29:16;15.00;53.10
12053;DHT22;6087;48.982;12.064;2023-07-31T05:31:43;15.00;53.80
12053;DHT22;6087;48.982;12.064;2023-07-31T05:34:10;15.10;52.90
12053;DHT22;6087;48.982;12.064;2023-07-31T05:36:37;15.20;51.50
12053;DHT22;6087;48.982;12.064;2023-07-31T05:39:04;15.20;51.90
12053;DHT22;6087;48.982;12.064;2023-07-31T05:41:34;15.20;51.30
12053;DHT22;6087;48.982;12.064;2023-07-31T05:44:01;15.30;51.20
12053;DHT22;6087;48.982;12.064;2023-07-31T05:46:30;15.20;50.50
12053;DHT22;6087;48.982;12.064;2023-07-31T05:48:57;15.30;50.70
12053;DHT22;6087;48.982;12.064;2023-07-31T05:51:26;15.30;50.30
12053;DHT22;6087;48.982;12.064;2023-07-31T05:53:53;15.30;50.70
12053;DHT22;6087;48.982;12.064;2023-07-31T05:56:20;15.30;51.90
12053;DHT22;6087;48.982;12.064;2023-07-31T05:58:49;15.30;51.20
12053;DHT22;6087;48.982;12.064;2023-07-31T06:01:16;15.40;51.10
12053;DHT22;6087;48.982;12.064;2023-07-31T06:03:48;15.40;49.90
12053;DHT22;6087;48.982;12.064;2023-07-31T06:06:15;15.40;50.70
12053;DHT22;6087;48.982;12.064;2023-07-31T06:08:41;15.50;50.50
12053;DHT22;6087;48.982;12.064;2023-07-31T06:11:08;15.50;49.10
12053;DHT22;6087;48.982;12.064;2023-07-31T06:13:35;15.50;50.10
12053;DHT22;6087;48.982;12.064;2023-07-31T06:16:05;15.50;50.70
12053;DHT22;6087;48.982;12.064;2023-07-31T06:18:32;15.60;50.00
12053;DHT22;6087;48.982;12.064;2023-07-31T06:21:01;15.60;49.60
12053;DHT22;6087;48.982;12.064;2023-07-31T06:23:27;15.60;49.20
12053;DHT22;6087;48.982;12.064;2023-07-31T06:25:54;15.70;49.20
12053;DHT22;6087;48.982;12.064;2023-07-31T06:28:21;15.70;49.30
12053;DHT22;6087;48.982;12.064;2023-07-31T06:30:48;15.80;47.70
12053;DHT22;6087;48.982;12.064;2023-07-31T06:33:15;15.90;48.30
12053;DHT22;6087;48.982;12.064;2023-07-31T06:35:42;15.90;46.90
12053;DHT22;6087;48.982;12.064;2023-07-31T06:38:10;16.00;47.00
12053;DHT22;6087;48.982;12.064;2023-07-31T06:40:37;16.10;46.60
12053;DHT22;6087;48.982;12.064;2023-07-31T06:43:04;16.20;46.90
12053;DHT22;6087;48.982;12.064;2023-07-31T06:45:33;16.20;45.70
12053;DHT22;6087;48.982;12.064;2023-07-31T06:48:01;16.20;43.10
12053;DHT22;6087;48.982;12.064;2023-07-31T06:50:28;16.30;44.10
12053;DHT22;6087;48.982;12.064;2023-07-31T06:52:55;16.30;44.60
12053;DHT22;6087;48.982;12.064;2023-07-31T06:55:23;16.40;43.40
12053;DHT22;6087;48.982;12.064;2023-07-31T06:57:51;16.40;43.30
12053;DHT22;6087;48.982;12.064;2023-07-31T07:00:20;16.50;45.20
12053;DHT22;6087;48.982;12.064;2023-07-31T07:02:47;16.50;43.90
12053;DHT22;6087;48.982;12.064;2023-07-31T07:05:15;16.60;44.50
12053;DHT22;6087;48.982;12.064;2023-07-31T07:07:42;16.60;45.70
12053;DHT22;6087;48.982;12.064;2023-07-31T07:10:09;16.60;44.30
12053;DHT22;6087;48.982;12.064;2023-07-31T07:12:37;16.70;45.00
12053;DHT22;6087;48.982;12.064;2023-07-31T07:15:05;16.80;42.80
12053;DHT22;6087;48.982;12.064;2023-07-31T07:17:32;16.80;41.90
12053;DHT22;6087;48.982;12.064;2023-07-31T07:19:59;16.80;43.30
12053;DHT22;6087;48.982;12.064;2023-07-31T07:22:27;16.80;41.90
12053;DHT22;6087;48.982;12.064;2023-07-31T07:24:54;16.90;42.40
12053;DHT22;6087;48.982;12.064;2023-07-31T07:27:21;16.90;42.10
12053;DHT22;6087;48.982;12.064;2023-07-31T07:29:50;17.00;41.80
12053;DHT22;6087;48.982;12.064;2023-07-31T07:32:17;17.00;42.20
12053;DHT22;6087;48.982;12.064;2023-07-31T07:34:44;17.00;41.80
12053;DHT22;6087;48.982;12.064;2023-07-31T07:37:11;16.90;41.60
12053;DHT22;6087;48.982;12.064;2023-07-31T07:39:38;17.00;41.30
12053;DHT22;6087;48.982;12.064;2023-07-31T07:42:05;17.10;40.40
12053;DHT22;6087;48.982;12.064;2023-07-31T07:44:32;17.00;38.90
12053;DHT22;6087;48.982;12.064;2023-07-31T07:47:00;17.00;38.70
12053;DHT22;6087;48.982;12.064;2023-07-31T07:49:27;17.00;38.80
12053;DHT22;6087;48.982;12.064;2023-07-31T07:51:54;17.00;38.60
12053;DHT22;6087;48.982;12.064;2023-07-31T07:54:24;17.00;38.70
12053;DHT22;6087;48.982;12.064;2023-07-31T07:56:51;17.00;38.40
12053;DHT22;6087;48.982;12.064;2023-07-31T07:59:18;17.00;38.80
12053;DHT22;6087;48.982;12.064;2023-07-31T08:01:45;17.10;38.90
12053;DHT22;6087;48.982;12.064;2023-07-31T08:04:13;17.20;39.70
12053;DHT22;6087;48.982;12.064;2023-07-31T08:06:40;17.20;39.50
12053;DHT22;6087;48.982;12.064;2023-07-31T08:09:07;17.20;38.80
12053;DHT22;6087;48.982;12.064;2023-07-31T08:11:34;17.30;38.80
12053;DHT22;6087;48.982;12.064;2023-07-31T08:14:01;17.40;38.10
12053;DHT22;6087;48.982;12.064;2023-07-31T08:16:28;17.30;35.90
12053;DHT22;6087;48.982;12.064;2023-07-31T08:18:55;17.30;37.20
12053;DHT22;6087;48.982;12.064;2023-07-31T08:21:25;17.30;36.00
12053;DHT22;6087;48.982;12.064;2023-07-31T08:23:51;17.30;35.30
12053;DHT22;6087;48.982;12.064;2023-07-31T08:26:19;17.30;36.70
12053;DHT22;6087;48.982;12.064;2023-07-31T08:28:46;17.40;36.70
12053;DHT22;6087;48.982;12.064;2023-07-31T08:31:13;17.30;38.30
12053;DHT22;6087;48.982;12.064;2023-07-31T08:33:40;17.40;38.20
12053;DHT22;6087;48.982;12.064;2023-07-31T08:36:07;17.50;37.30
12053;DHT22;6087;48.982;12.064;2023-07-31T08:38:35;17.40;36.90
12053;DHT22;6087;48.982;12.064;2023-07-31T08:41:03;17.50;38.40
12053;DHT22;6087;48.982;12.064;2023-07-31T08:43:30;17.60;38.10
12053;DHT22;6087;48.982;12.064;2023-07-31T08:45:57;17.60;38.20
12053;DHT22;6087;48.982;12.064;2023-07-31T08:48:24;17.70;36.50
12053;DHT22;6087;48.982;12.064;2023-07-31T08:50:52;17.60;36.00
12053;DHT22;6087;48.982;12.064;2023-07-31T08:53:19;17.70;37.20
12053;DHT22;6087;48.982;12.064;2023-07-31T08:55:49;17.80;35.80
12053;DHT22;6087;48.982;12.064;2023-07-31T08:58:17;17.80;34.70
12053;DHT22;6087;48.982;12.064;2023-07-31T09:00:46;17.80;36.60
12053;DHT22;6087;48.982;12.064;2023-07-31T09:03:14;17.80;32.90
12053;DHT22;6087;48.982;12.064;2023-07-31T09:05:43;17.90;32.80
12053;DHT22;6087;48.982;12.064;2023-07-31T09:08:12;17.90;33.40
12053;DHT22;6087;48.982;12.064;2023-07-31T09:10:41;18.00;33.40
12053;DHT22;6087;48.982;12.064;2023-07-31T09:13:12;18.10;33.80
12053;DHT22;6087;48.982;12.064;2023-07-31T09:15:40;18.20;32.40
12053;DHT22;6087;48.982;12.064;2023-07-31T09:18:09;18.30;32.30
12053;DHT22;6087;48.982;12.064;2023-07-31T09:20:36;18.30;30.00
12053;DHT22;6087;48.982;12.064;2023-07-31T09:23:08;18.30;29.50
12053;DHT22;6087;48.982;12.064;2023-07-31T09:25:45;18.30;29.10
12053;DHT22;6087;48.982;12.064;2023-07-31T09:28:14;18.40;30.00
12053;DHT22;6087;48.982;12.064;2023-07-31T09:30:46;18.50;30.00
12053;DHT22;6087;48.982;12.064;2023-07-31T09:33:14;18.50;31.00
12053;DHT22;6087;48.982;12.064;2023-07-31T09:35:41;18.50;28.90
12053;DHT22;6087;48.982;12.064;2023-07-31T09:38:10;18.50;29.20
12053;DHT22;6087;48.982;12.064;2023-07-31T09:40:38;18.50;28.40
12053;DHT22;6087;48.982;12.064;2023-07-31T09:43:06;18.40;26.60
12053;DHT22;6087;48.982;12.064;2023-07-31T09:45:39;18.40;27.70
12053;DHT22;6087;48.982;12.064;2023-07-31T09:48:08;18.40;28.10
12053;DHT22;6087;48.982;12.064;2023-07-31T09:50:45;18.50;29.00
12053;DHT22;6087;48.982;12.064;2023-07-31T09:53:12;18.60;28.70
12053;DHT22;6087;48.982;12.064;2023-07-31T09:55:41;18.60;29.80
12053;DHT22;6087;48.982;12.064;2023-07-31T09:58:09;18.70;27.50
12053;DHT22;6087;48.982;12.064;2023-07-31T10:00:39;18.70;27.80
12053;DHT22;6087;48.982;12.064;2023-07-31T10:03:12;18.80;25.60
12053;DHT22;6087;48.982;12.064;2023-07-31T10:05:42;18.70;25.20
12053;DHT22;6087;48.982;12.064;2023-07-31T10:08:10;18.80;24.50
12053;DHT22;6087;48.982;12.064;2023-07-31T10:10:41;18.80;24.10
12053;DHT22;6087;48.982;12.064;2023-07-31T10:13:09;18.80;22.20
12053;DHT22;6087;48.982;12.064;2023-07-31T10:15:37;18.80;21.40
12053;DHT22;6087;48.982;12.064;2023-07-31T10:18:06;18.90;20.50
12053;DHT22;6087;48.982;12.064;2023-07-31T10:20:34;19.00;20.30
12053;DHT22;6087;48.982;12.064;2023-07-31T10:23:03;19.10;19.80
12053;DHT22;6087;48.982;12.064;2023-07-31T10:25:30;19.10;20.90
12053;DHT22;6087;48.982;12.064;2023-07-31T10:27:59;19.30;18.30
12053;DHT22;6087;48.982;12.064;2023-07-31T10:30:29;19.40;18.40
12053;DHT22;6087;48.982;12.064;2023-07-31T10:32:57;19.50;17.30
12053;DHT22;6087;48.982;12.064;2023-07-31T10:35:28;19.60;18.50
12053;DHT22;6087;48.982;12.064;2023-07-31T10:37:55;19.70;17.00
12053;DHT22;6087;48.982;12.064;2023-07-31T10:40:26;19.70;14.50
12053;DHT22;6087;48.982;12.064;2023-07-31T10:42:54;19.70;14.80
12053;DHT22;6087;48.982;12.064;2023-07-31T10:45:30;19.80;14.40
12053;DHT22;6087;48.982;12.064;2023-07-31T10:48:02;19.80;14.60
12053;DHT22;6087;48.982;12.064;2023-07-31T10:50:30;19.90;14.30
12053;DHT22;6087;48.982;12.064;2023-07-31T10:52:58;20.00;15.20
12053;DHT22;6087;48.982;12.064;2023-07-31T10:55:30;20.00;14.80
12053;DHT22;6087;48.982;12.064;2023-07-31T10:58:04;20.00;15.60
12053;DHT22;6087;48.982;12.064;2023-07-31T11:00:32;20.00;14.80
12053;DHT22;6087;48.982;12.064;2023-07-31T11:03:02;20.10;15.60
12053;DHT22;6087;48.982;12.064;2023-07-31T11:05:49;20.20;19.00
12053;DHT22;6087;48.982;12.064;2023-07-31T11:08:18;20.40;14.10
12053;DHT22;6087;48.982;12.064;2023-07-31T11:10:47;20.50;12.70
12053;DHT22;6087;48.982;12.064;2023-07-31T11:13:14;20.50;12.80
12053;DHT22;6087;48.982;12.064;2023-07-31T11:15:41;20.50;14.30
12053;DHT22;6087;48.982;12.064;2023-07-31T11:18:10;20.50;12.40
12053;DHT22;6087;48.982;12.064;2023-07-31T11:20:39;20.60;11.90
12053;DHT22;6087;48.982;12.064;2023-07-31T11:23:08;20.50;12.30
12053;DHT22;6087;48.982;12.064;2023-07-31T11:25:35;20.50;10.60
12053;DHT22;6087;48.982;12.064;2023-07-31T11:28:03;20.50;11.50
12053;DHT22;6087;48.982;12.064;2023-07-31T11:30:30;20.50;11.10
12053;DHT22;6087;48.982;12.064;2023-07-31T11:33:06;20.60;12.00
12053;DHT22;6087;48.982;12.064;2023-07-31T11:35:44;20.70;9.90
12053;DHT22;6087;48.982;12.064;2023-07-31T11:38:12;20.70;8.00
12053;DHT22;6087;48.982;12.064;2023-07-31T11:40:41;20.70;8.80
12053;DHT22;6087;48.982;12.064;2023-07-31T11:43:08;20.70;7.20
12053;DHT22;6087;48.982;12.064;2023-07-31T11:45:37;20.80;7.80
12053;DHT22;6087;48.982;12.064;2023-07-31T11:48:05;20.80;6.40
12053;DHT22;6087;48.982;12.064;2023-07-31T11:50:37;20.80;6.10
12053;DHT22;6087;48.982;12.064;2023-07-31T11:53:08;21.00;7.00
12053;DHT22;6087;48.982;12.064;2023-07-31T11:55:35;21.10;7.10
12053;DHT22;6087;48.982;12.064;2023-07-31T11:58:03;21.10;7.10
12053;DHT22;6087;48.982;12.064;2023-07-31T12:00:30;21.30;6.80
12053;DHT22;6087;48.982;12.064;2023-07-31T12:02:57;21.40;6.40
12053;DHT22;6087;48.982;12.064;2023-07-31T12:05:30;21.40;4.80
12053;DHT22;6087;48.982;12.064;2023-07-31T12:07:58;21.60;4.20
12053;DHT22;6087;48.982;12.064;2023-07-31T12:10:27;21.60;5.40
12053;DHT22;6087;48.982;12.064;2023-07-31T12:13:00;21.60;5.30
12053;DHT22;6087;48.982;12.064;2023-07-31T12:15:33;21.80;7.50
12053;DHT22;6087;48.982;12.064;2023-07-31T12:18:00;21.80;2.10
12053;DHT22;6087;48.982;12.064;2023-07-31T12:20:27;21.90;2.60
12053;DHT22;6087;48.982;12.064;2023-07-31T12:22:58;22.00;3.10
12053;DHT22;6087;48.982;12.064;2023-07-31T12:25:29;22.10;2.30
12053;DHT22;6087;48.982;12.064;2023-07-31T12:27:56;22.10;1.80
12053;DHT22;6087;48.982;12.064;2023-07-31T12:30:27;22.20;1.80
12053;DHT22;6087;48.982;12.064;2023-07-31T12:32:54;22.20;2.10
12053;DHT22;6087;48.982;12.064;2023-07-31T12:35:21;22.30;4.40
12053;DHT22;6087;48.982;12.064;2023-07-31T12:37:53;22.30;3.20
12053;DHT22;6087;48.982;12.064;2023-07-31T12:40:25;22.20;1.00
12053;DHT22;6087;48.982;12.064;2023-07-31T12:42:51;22.00;1.00
12053;DHT22;6087;48.982;12.064;2023-07-31T12:45:18;22.00;1.00
12053;DHT22;6087;48.982;12.064;2023-07-31T12:47:46;22.00;1.10
12053;DHT22;6087;48.982;12.064;2023-07-31T12:50:13;22.00;1.00
12053;DHT22;6087;48.982;12.064;2023-07-31T12:52:40;22.10;1.00
12053;DHT22;6087;48.982;12.064;2023-07-31T12:55:07;22.10;1.00
12053;DHT22;6087;48.982;12.064;2023-07-31T12:57:38;22.10;1.00
12053;DHT22;6087;48.982;12.064;2023-07-31T13:00:06;22.30;2.50
12053;DHT22;6087;48.982;12.064;2023-07-31T13:02:33;22.50;1.00
12053;DHT22;6087;48.982;12.064;2023-07-31T13:05:00;22.30;1.00
12053;DHT22;6087;48.982;12.064;2023-07-31T13:07:27;22.40;1.00
12053;DHT22;6087;48.982;12.064;2023-07-31T13:09:54;22.20;1.00
12053;DHT22;6087;48.982;12.064;2023-07-31T13:12:21;22.30;2.00
12053;DHT22;6087;48.982;12.064;2023-07-31T13:14:49;22.50;1.30
12053;DHT22;6087;48.982;12.064;2023-07-31T13:17:16;22.50;1.00
12053;DHT22;6087;48.982;12.064;2023-07-31T13:19:43;22.60;1.00
12053;DHT22;6087;48.982;12.064;2023-07-31T13:22:10;22.50;1.00
12053;DHT22;6087;48.982;12.064;2023-07-31T13:24:37;22.40;1.00
12053;DHT22;6087;48.982;12.064;2023-07-31T13:27:04;22.30;1.00
12053;DHT22;6087;48.982;12.064;2023-07-31T13:29:31;22.20;1.00
12053;DHT22;6087;48.982;12.064;2023-07-31T13:31:59;22.30;1.00
12053;DHT22;6087;48.982;12.064;2023-07-31T13:34:26;22.30;1.00
12053;DHT22;6087;48.982;12.064;2023-07-31T13:36:54;22.40;1.00
12053;DHT22;6087;48.982;12.064;2023-07-31T13:39:27;22.60;1.00
12053;DHT22;6087;48.982;12.064;2023-07-31T13:41:54;22.70;1.00
12053;DHT22;6087;48.982;12.064;2023-07-31T13:44:23;22.90;1.00
12053;DHT22;6087;48.982;12.064;2023-07-31T13:46:51;22.90;1.00
12053;DHT22;6087;48.982;12.064;2023-07-31T13:49:27;22.90;1.00
12053;DHT22;6087;48.982;12.064;2023-07-31T13:51:54;22.80;1.00
12053;DHT22;6087;48.982;12.064;2023-07-31T13:54:21;22.80;1.00
12053;DHT22;6087;48.982;12.064;2023-07-31T13:56:54;22.80;1.00
12053;DHT22;6087;48.982;12.064;2023-07-31T13:59:21;22.80;1.00
12053;DHT22;6087;48.982;12.064;2023-07-31T14:01:50;22.90;1.00
12053;DHT22;6087;48.982;12.064;2023-07-31T14:04:21;22.90;1.00
12053;DHT22;6087;48.982;12.064;2023-07-31T14:06:48;22.90;1.00
12053;DHT22;6087;48.982;12.064;2023-07-31T14:09:18;22.90;1.00
12053;DHT22;6087;48.982;12.064;2023-07-31T14:11:45;22.90;1.00
12053;DHT22;6087;48.982;12.064;2023-07-31T14:14:14;22.90;1.00
12053;DHT22;6087;48.982;12.064;2023-07-31T14:16:43;22.90;1.00
12053;DHT22;6087;48.982;12.064;2023-07-31T14:19:10;22.90;1.00
12053;DHT22;6087;48.982;12.064;2023-07-31T14:21:38;23.00;1.00
12053;DHT22;6087;48.982;12.064;2023-07-31T14:24:05;23.00;1.00
12053;DHT22;6087;48.982;12.064;2023-07-31T14:26:32;22.90;1.00
12053;DHT22;6087;48.982;12.064;2023-07-31T14:28:59;23.00;1.00
12053;DHT22;6087;48.982;12.064;2023-07-31T14:31:26;22.90;1.00
12053;DHT22;6087;48.982;12.064;2023-07-31T14:33:53;23.00;1.00
12053;DHT22;6087;48.982;12.064;2023-07-31T14:36:20;23.10;1.00
12053;DHT22;6087;48.982;12.064;2023-07-31T14:38:48;23.20;1.00
12053;DHT22;6087;48.982;12.064;2023-07-31T14:41:15;23.20;1.00
12053;DHT22;6087;48.982;12.064;2023-07-31T14:43:42;23.30;1.00
12053;DHT22;6087;48.982;12.064;2023-07-31T14:46:09;23.40;1.00
12053;DHT22;6087;48.982;12.064;2023-07-31T14:48:36;23.20;1.00
12053;DHT22;6087;48.982;12.064;2023-07-31T14:51:03;23.20;1.00
12053;DHT22;6087;48.982;12.064;2023-07-31T14:53:32;23.20;1.00
12053;DHT22;6087;48.982;12.064;2023-07-31T14:56:01;23.30;1.00
12053;DHT22;6087;48.982;12.064;2023-07-31T14:58:28;23.20;1.00
12053;DHT22;6087;48.982;12.064;2023-07-31T15:00:55;23.10;1.00
12053;DHT22;6087;48.982;12.064;2023-07-31T15:03:25;23.10;1.00
12053;DHT22;6087;48.982;12.064;2023-07-31T15:05:52;23.10;1.00
12053;DHT22;6087;48.982;12.064;2023-07-31T15:08:18;23.20;1.00
12053;DHT22;6087;48.982;12.064;2023-07-31T15:10:45;23.10;1.00
12053;DHT22;6087;48.982;12.064;2023-07-31T15:13:14;23.10;1.00
12053;DHT22;6087;48.982;12.064;2023-07-31T15:15:41;23.20;1.00
12053;DHT22;6087;48.982;12.064;2023-07-31T15:18:07;23.20;1.00
12053;DHT22;6087;48.982;12.064;2023-07-31T15:20:34;23.20;1.00
12053;DHT22;6087;48.982;12.064;2023-07-31T15:23:01;23.20;1.00
12053;DHT22;6087;48.982;12.064;2023-07-31T15:25:28;23.00;1.00
12053;DHT22;6087;48.982;12.064;2023-07-31T15:27:55;22.90;1.00
12053;DHT22;6087;48.982;12.064;2023-07-31T15:30:24;22.80;1.00
12053;DHT22;6087;48.982;12.064;2023-07-31T15:32:52;22.70;1.00
12053;DHT22;6087;48.982;12.064;2023-07-31T15:35:19;22.70;1.00
12053;DHT22;6087;48.982;12.064;2023-07-31T15:37:46;22.60;1.00
12053;DHT22;6087;48.982;12.064;2023-07-31T15:40:13;22.50;1.00